CDT,Max TemperatureF,Mean TemperatureF,Min TemperatureF,Max Dew PointF,MeanDew PointF,Min DewpointF,Max Humidity, Mean Humidity, Min Humidity, Max Sea Level PressureIn, Mean Sea Level PressureIn, Min Sea Level PressureIn, Max VisibilityMiles, Mean VisibilityMiles, Min VisibilityMiles, Max Wind SpeedMPH, Mean Wind SpeedMPH, Max Gust SpeedMPH,PrecipitationIn, CloudCover, Events, WindDirDegrees
2013-6-1,64,60,55,54,49,46,82,69,55,30.03,29.83,29.70,10,10,5,21,10,29,0.00,6,Rain,292
2013-6-2,66,58,51,48,45,43,82,65,43,30.14,30.08,30.03,10,9,2,13,7,,0.00,6,,355
2013-6-3,73,60,48,52,47,43,87,60,33,30.09,29.99,29.88,10,9,2,21,6,26,0.00,1,,146
2013-6-4,73,66,60,63,57,52,83,71,64,29.99,29.94,29.89,10,10,10,18,9,23,0.15,5,Rain,123
2013-6-5,71,64,57,61,55,52,88,71,50,30.04,30.00,29.97,10,9,1,16,6,21,0.68,5,Rain,360
2013-6-6,73,62,51,55,50,46,88,63,38,30.02,29.98,29.96,10,10,10,13,3,17,0.00,2,,344
2013-6-7,71,60,50,52,48,45,88,63,38,30.06,30.00,29.93,10,10,5,9,3,,0.00,3,,57
2013-6-8,77,66,55,61,53,48,83,68,47,29.94,29.83,29.71,10,10,2,24,10,32,1.36,3,Rain,164
2013-6-9,69,64,60,61,56,55,82,77,64,29.84,29.79,29.76,10,10,3,18,10,26,0.20,6,Rain,263
2013-6-10,80,70,59,64,59,54,88,75,54,29.93,29.87,29.81,10,9,2,14,4,16,0.00,4,,163
2013-6-11,89,79,69,68,63,52,78,61,31,29.85,29.78,29.70,10,10,10,30,8,44,0.00,1,,171
2013-6-12,91,78,64,70,64,54,78,60,42,30.03,29.81,29.71,10,10,10,23,12,30,0.00,1,,276
2013-6-13,80,70,59,63,54,41,88,64,24,30.11,30.06,29.98,10,10,10,14,4,16,0.01,1,Rain,357
2013-6-14,86,74,62,66,61,57,82,68,48,30.06,29.96,29.84,10,10,7,29,8,34,0.03,3,Rain,131
2013-6-15,84,75,66,70,64,61,83,73,51,29.99,29.92,29.88,10,10,7,18,8,24,0.07,3,Rain,172
2013-6-16,84,73,62,68,64,61,94,72,45,30.01,29.98,29.95,10,8,0,9,3,,0.00,4,Fog,77
2013-6-17,89,76,64,66,57,45,94,58,21,30.02,29.99,29.95,10,9,2,10,3,17,0.00,1,,3
2013-6-18,82,71,60,61,55,41,82,60,23,30.10,30.03,29.99,10,10,7,8,2,17,0.00,2,Rain,21
2013-6-19,86,74,62,64,60,54,83,62,37,30.05,30.00,29.94,10,10,7,16,5,26,0.00,2,,154
2013-6-20,91,80,69,72,67,63,78,64,46,30.00,29.94,29.87,10,10,7,25,11,31,0.00,1,,159
2013-6-21,93,85,77,73,70,64,78,62,41,29.93,29.89,29.84,10,10,10,23,14,29,0.00,1,,180
2013-6-22,91,81,71,70,67,61,83,59,40,29.99,29.90,29.83,10,9,7,25,10,30,0.00,1,,173
2013-6-23,82,72,62,72,66,57,88,73,61,30.00,29.88,29.81,10,10,4,22,12,32,0.77,4,Rain,166
2013-6-24,82,76,71,72,68,64,83,77,69,29.99,29.87,29.79,10,10,2,21,6,26,0.77,3,Rain,154
2013-6-25,87,78,69,73,69,64,83,71,58,29.84,29.76,29.70,10,10,5,18,6,24,0.00,1,Rain,164
2013-6-26,89,78,68,73,67,61,88,67,38,29.91,29.81,29.67,10,9,5,14,5,17,0.00,1,,296
2013-6-27,80,72,64,70,65,61,94,80,61,30.03,29.96,29.91,10,10,0,16,2,21,0.23,2,Rain,31
2013-6-28,84,75,66,64,58,52,83,56,33,29.99,29.94,29.90,10,10,10,17,5,25,0.00,1,,328
2013-6-29,78,70,62,59,55,54,77,59,42,29.96,29.90,29.88,10,10,10,23,9,37,0.00,1,Rain,333
2013-6-30,78,66,55,59,53,50,88,62,36,30.11,30.04,29.96,10,10,5,16,4,22,0.00,1,,23